Time;durP1;ratioP1;P1;durP2;ratioP2;P2;SDS_P1;SDS_P2;PMS_P1;PMS_P2;Temp;Humidity;BMP_temperature;BMP_pressure;BME280_temperature;BME280_humidity;BME280_pressure;Samples;Min_cycle;Max_cycle;Signal;HPM_P1;HPM_P2
2024/01/25 00:02:42;;;;;;;;;;;;;;;;;;;;;
2024/01/25 00:05:28;;;;;;;6.70;3.00;;;13.90;98.20;;;;;;5014436;28;20221;-70
2024/01/25 00:08:30;;;;;;;5.27;2.57;;;14.00;98.30;;;;;;4998070;28;20634;-70
2024/01/25 00:11:05;;;;;;;5.73;2.47;;;13.90;98.20;;;;;;4995214;28;20202;-70
2024/01/25 00:13:38;;;;;;;6.80;2.83;;;13.90;98.20;;;;;;4982283;28;20192;-72
2024/01/25 00:16:58;;;;;;;7.00;3.03;;;13.90;98.20;;;;;;4974562;28;20188;-73
2024/01/25 00:19:44;;;;;;;6.53;2.90;;;13.90;98.20;;;;;;4918557;29;20242;-73
2024/01/25 00:22:37;;;;;;;5.43;2.60;;;14.00;98.20;;;;;;4917882;29;20462;-73
2024/01/25 00:25:36;;;;;;;6.90;2.50;;;13.90;98.20;;;;;;5002084;28;20600;-72
2024/01/25 00:28:14;;;;;;;8.40;4.03;;;14.00;98.20;;;;;;4996374;28;20195;-72
2024/01/25 00:31:17;;;;;;;7.67;2.97;;;13.90;98.20;;;;;;4996488;28;20873;-72
2024/01/25 00:34:20;;;;;;;9.00;3.07;;;14.00;98.20;;;;;;4935385;29;20521;-72
2024/01/25 00:37:01;;;;;;;76.90;69.57;;;13.90;98.20;;;;;;4937469;29;20566;-72
2024/01/25 00:39:53;;;;;;;9.47;3.00;;;14.00;98.20;;;;;;4936250;29;20210;-72
2024/01/25 00:42:38;;;;;;;7.27;2.80;;;13.90;98.20;;;;;;4932089;29;20196;-72
2024/01/25 00:49:07;;;;;;;8.67;2.90;;;14.00;98.20;;;;;;4955608;28;20189;-71
2024/01/25 00:51:32;;;;;;;5.27;2.97;;;14.00;98.20;;;;;;4897760;29;20673;-71
2024/01/25 00:54:04;;;;;;;5.20;2.57;;;13.90;98.20;;;;;;4882320;29;20194;-71
2024/01/25 00:56:38;;;;;;;194.03;174.57;;;13.90;98.20;;;;;;4890777;29;20185;-71
2024/01/25 00:59:13;;;;;;;5.43;2.63;;;14.00;98.20;;;;;;4858075;29;20706;-69
2024/01/25 01:14:57;;;;;;;6.87;2.83;;;13.90;98.20;;;;;;4900022;28;20205;-70
2024/01/25 01:18:08;;;;;;;5.03;2.43;;;13.90;98.20;;;;;;4960558;28;20214;-70
2024/01/25 01:26:35;;;;;;;6.20;3.00;;;13.90;98.20;;;;;;4975127;28;20242;-70
2024/01/25 01:29:30;;;;;;;7.60;3.13;;;13.90;98.20;;;;;;4976506;28;20186;-70
2024/01/25 01:32:36;;;;;;;7.53;2.50;;;13.90;98.20;;;;;;4996810;28;20186;-70
2024/01/25 01:35:04;;;;;;;6.57;2.87;;;13.90;98.20;;;;;;4996009;28;20184;-70
2024/01/25 01:38:22;;;;;;;7.03;3.07;;;13.90;98.20;;;;;;4995450;28;20212;-70
2024/01/25 01:41:23;;;;;;;5.40;2.60;;;13.90;98.20;;;;;;4996572;28;20255;-70
2024/01/25 01:44:07;;;;;;;6.17;2.67;;;13.90;98.20;;;;;;4998445;28;20681;-70
2024/01/25 01:47:01;;;;;;;6.10;2.53;;;13.90;98.20;;;;;;5037080;28;20184;-70
2024/01/25 01:49:48;;;;;;;6.00;2.67;;;13.90;98.20;;;;;;5072915;28;20170;-70
2024/01/25 01:52:42;;;;;;;8.90;2.73;;;13.90;98.20;;;;;;5055055;28;20172;-70
2024/01/25 01:59:00;;;;;;;5.67;2.70;;;13.90;98.20;;;;;;4970901;28;20275;-70
2024/01/25 02:02:03;;;;;;;5.63;2.40;;;13.90;98.20;;;;;;4971234;28;20179;-70
2024/01/25 02:05:19;;;;;;;7.63;2.97;;;13.80;98.20;;;;;;4956199;28;20221;-70
2024/01/25 02:11:35;;;;;;;4.90;2.50;;;13.90;98.20;;;;;;4910501;28;20186;-71
2024/01/25 02:14:19;;;;;;;5.43;2.70;;;13.90;98.20;;;;;;4974551;28;20295;-71
2024/01/25 02:20:26;;;;;;;5.50;2.60;;;13.90;98.20;;;;;;4993969;28;20200;-70
2024/01/25 02:23:28;;;;;;;4.67;2.57;;;13.90;98.10;;;;;;5038486;28;20183;-69
2024/01/25 02:26:32;;;;;;;8.13;2.90;;;13.90;98.10;;;;;;5056849;28;20196;-73
2024/01/25 02:29:20;;;;;;;5.87;2.70;;;13.90;98.10;;;;;;5057870;28;20443;-73
2024/01/25 02:32:04;;;;;;;5.63;2.73;;;13.90;98.10;;;;;;5032269;28;20470;-71
2024/01/25 02:34:51;;;;;;;6.03;2.70;;;13.90;98.10;;;;;;5016687;28;20173;-72
2024/01/25 02:37:39;;;;;;;4.87;2.40;;;13.90;98.10;;;;;;5032634;28;20170;-71
2024/01/25 02:40:36;;;;;;;5.13;2.93;;;13.90;98.10;;;;;;4992406;28;20209;-71
2024/01/25 02:49:35;;;;;;;6.47;2.60;;;13.90;98.20;;;;;;4991547;28;20245;-70
2024/01/25 02:53:02;;;;;;;6.37;3.00;;;13.80;98.40;;;;;;4976604;28;20272;-70
2024/01/25 02:56:01;;;;;;;5.20;2.63;;;13.90;98.10;;;;;;4955006;29;20180;-70
2024/01/25 02:59:04;;;;;;;5.90;2.87;;;13.90;98.20;;;;;;4938859;29;20177;-70
2024/01/25 03:01:54;;;;;;;5.33;2.63;;;13.90;98.20;;;;;;4954629;29;20204;-70
2024/01/25 03:07:33;;;;;;;5.57;2.70;;;13.80;98.10;;;;;;4954456;29;20180;-69
2024/01/25 03:13:35;;;;;;;5.70;2.50;;;13.90;98.10;;;;;;4916424;29;20380;-69
2024/01/25 03:16:34;;;;;;;5.47;2.57;;;13.80;98.10;;;;;;4830431;29;20290;-69
2024/01/25 03:19:34;;;;;;;4.53;2.47;;;13.80;98.20;;;;;;4890043;29;20196;-71
2024/01/25 03:22:25;;;;;;;5.17;2.50;;;13.80;98.20;;;;;;4843366;29;20242;-71
2024/01/25 03:28:48;;;;;;;3.80;2.10;;;13.80;98.20;;;;;;4895873;29;20213;-72
2024/01/25 03:31:49;;;;;;;4.97;2.50;;;13.80;98.20;;;;;;4964008;28;20273;-69
2024/01/25 03:34:34;;;;;;;4.90;2.37;;;13.80;98.20;;;;;;4973311;28;20614;-69
2024/01/25 03:44:03;;;;;;;3.37;2.03;;;13.80;98.20;;;;;;4915277;29;20229;-70
2024/01/25 03:46:32;;;;;;;4.93;2.40;;;13.80;98.30;;;;;;4840796;29;20180;-70
2024/01/25 03:49:23;;;;;;;4.07;2.20;;;13.80;98.30;;;;;;4845787;29;20179;-70
2024/01/25 03:52:06;;;;;;;5.57;2.57;;;13.80;98.20;;;;;;4877853;29;20197;-70
2024/01/25 03:54:54;;;;;;;4.93;2.53;;;13.80;98.20;;;;;;4877341;29;20253;-71
2024/01/25 03:57:42;;;;;;;3.33;1.90;;;13.80;98.30;;;;;;4878257;29;20186;-71
2024/01/25 04:00:28;;;;;;;7.60;2.40;;;13.80;98.20;;;;;;4863763;29;20596;-72
2024/01/25 04:03:30;;;;;;;4.97;2.50;;;13.80;98.30;;;;;;4862098;29;20221;-72
2024/01/25 04:06:45;;;;;;;4.63;2.13;;;13.80;98.30;;;;;;4861072;29;20224;-72
2024/01/25 04:09:26;;;;;;;5.93;2.40;;;13.80;98.30;;;;;;4858937;29;20191;-73
2024/01/25 04:12:00;;;;;;;7.73;2.77;;;13.70;98.30;;;;;;4877142;29;20190;-73
2024/01/25 04:14:48;;;;;;;5.07;2.13;;;13.70;98.30;;;;;;4861055;29;20648;-72
2024/01/25 04:17:32;;;;;;;5.13;2.30;;;13.70;98.30;;;;;;4858845;29;20621;-72
2024/01/25 04:20:07;;;;;;;4.47;2.27;;;13.70;98.30;;;;;;4857833;29;20470;-72
2024/01/25 04:22:55;;;;;;;4.83;2.67;;;13.70;98.30;;;;;;4893657;28;20224;-72
2024/01/25 04:26:10;;;;;;;4.67;2.37;;;13.70;98.40;;;;;;4951320;28;20219;-72
2024/01/25 04:28:38;;;;;;;4.90;2.27;;;13.70;98.40;;;;;;4879760;29;20429;-72
2024/01/25 04:31:13;;;;;;;5.17;2.37;;;13.70;98.40;;;;;;4897447;29;20192;-72
2024/01/25 04:33:57;;;;;;;3.90;1.83;;;13.70;98.40;;;;;;4899327;29;20466;-72
2024/01/25 04:36:38;;;;;;;3.90;2.50;;;13.70;98.50;;;;;;4899774;29;20225;-72
2024/01/25 04:39:20;;;;;;;4.93;2.47;;;13.70;98.50;;;;;;4898837;29;20188;-72
2024/01/25 04:46:13;;;;;;;4.93;2.13;;;13.70;98.50;;;;;;4849981;29;20192;-72
2024/01/25 04:51:44;;;;;;;6.00;2.13;;;13.60;98.50;;;;;;4859768;29;20278;-72
2024/01/25 04:54:29;;;;;;;5.57;2.33;;;13.60;98.50;;;;;;4858648;29;20197;-72
2024/01/25 04:57:47;;;;;;;5.50;2.17;;;13.60;98.60;;;;;;4918201;29;20590;-73
2024/01/25 05:00:27;;;;;;;5.07;2.17;;;13.60;98.60;;;;;;4898654;29;20279;-70
2024/01/25 05:06:47;;;;;;;4.57;2.17;;;13.60;98.90;;;;;;4941688;29;20283;-73
2024/01/25 05:09:55;;;;;;;5.57;2.37;;;13.60;98.70;;;;;;4969136;28;20290;-73
2024/01/25 05:15:30;;;;;;;4.30;2.27;;;13.60;98.70;;;;;;4954100;29;20335;-72
2024/01/25 05:18:23;;;;;;;5.47;2.30;;;13.60;98.70;;;;;;4923802;29;20184;-73
2024/01/25 05:20:58;;;;;;;4.97;2.00;;;13.60;98.70;;;;;;4934555;29;20551;-72
2024/01/25 05:23:54;;;;;;;4.83;2.40;;;13.60;98.70;;;;;;4939598;29;20218;-72
2024/01/25 05:26:39;;;;;;;6.17;2.37;;;13.60;98.70;;;;;;4931651;29;20180;-72
2024/01/25 05:29:11;;;;;;;3.23;2.00;;;13.60;98.80;;;;;;4932620;29;20245;-72
2024/01/25 05:31:42;;;;;;;4.00;1.87;;;13.50;98.80;;;;;;4932780;29;20789;-71
2024/01/25 05:40:24;;;;;;;5.37;2.30;;;13.50;98.80;;;;;;5069135;28;20285;-71
2024/01/25 05:43:11;;;;;;;3.90;1.80;;;13.50;98.80;;;;;;5071762;28;20174;-71
2024/01/25 05:45:43;;;;;;;4.37;2.13;;;13.50;98.80;;;;;;5056219;28;20285;-71
2024/01/25 05:48:45;;;;;;;4.80;2.23;;;13.50;98.80;;;;;;5049038;28;20180;-71
2024/01/25 05:51:16;;;;;;;5.40;2.30;;;13.50;98.90;;;;;;5008819;28;20348;-72
2024/01/25 05:53:51;;;;;;;5.03;2.33;;;13.50;98.80;;;;;;4992951;28;20200;-71
2024/01/25 05:56:44;;;;;;;5.00;2.30;;;13.50;98.80;;;;;;4992024;28;20254;-71
2024/01/25 05:59:48;;;;;;;4.13;2.23;;;13.50;98.80;;;;;;5010609;28;20190;-71
2024/01/25 06:02:34;;;;;;;4.80;2.37;;;13.50;98.90;;;;;;4981209;28;20192;-71
2024/01/25 06:09:01;;;;;;;4.40;2.10;;;13.40;99.00;;;;;;4873716;29;20545;-71
2024/01/25 06:11:27;;;;;;;4.17;2.10;;;13.40;99.10;;;;;;4862236;29;20200;-71
2024/01/25 06:13:55;;;;;;;3.60;2.13;;;13.40;99.10;;;;;;4946313;28;20182;-71
2024/01/25 06:16:21;;;;;;;3.93;1.80;;;13.40;99.20;;;;;;4989946;28;20251;-72
2024/01/25 06:19:06;;;;;;;6.00;1.87;;;13.40;99.30;;;;;;5011899;28;20185;-71
2024/01/25 06:22:24;;;;;;;4.60;2.27;;;13.40;99.30;;;;;;5017256;28;20248;-71
2024/01/25 06:25:17;;;;;;;3.80;2.13;;;13.40;99.40;;;;;;5028451;28;20225;-71
2024/01/25 06:31:13;;;;;;;3.70;2.07;;;13.40;99.80;;;;;;4991748;28;20449;-71
2024/01/25 06:34:12;;;;;;;4.70;2.40;;;13.40;99.60;;;;;;5024362;28;20192;-71
2024/01/25 06:37:11;;;;;;;4.53;1.93;;;13.40;99.60;;;;;;5023637;28;20212;-71
2024/01/25 06:39:38;;;;;;;4.23;1.77;;;13.40;99.70;;;;;;4987138;28;20332;-71
2024/01/25 06:42:16;;;;;;;4.37;2.40;;;13.40;99.80;;;;;;5006914;28;20209;-71
2024/01/25 06:44:50;;;;;;;5.73;2.47;;;13.40;99.90;;;;;;4996139;28;20247;-71
2024/01/25 06:47:19;;;;;;;5.20;2.17;;;13.40;99.90;;;;;;4995001;28;20599;-72
2024/01/25 06:50:07;;;;;;;4.37;2.13;;;13.40;99.90;;;;;;4994135;28;20189;-71
2024/01/25 06:52:42;;;;;;;6.20;2.03;;;13.40;99.90;;;;;;4999346;28;20185;-71
2024/01/25 06:55:08;;;;;;;5.60;2.30;;;13.40;99.90;;;;;;4994420;28;20573;-71
2024/01/25 06:57:40;;;;;;;6.77;2.30;;;13.40;99.90;;;;;;5028888;28;20213;-71
2024/01/25 07:00:11;;;;;;;4.87;2.20;;;13.40;99.90;;;;;;5018285;28;20179;-71
2024/01/25 07:03:11;;;;;;;6.77;2.40;;;13.40;99.90;;;;;;5020571;28;20195;-71
2024/01/25 07:05:51;;;;;;;5.27;2.30;;;13.40;99.90;;;;;;4989757;28;20355;-75
2024/01/25 07:08:58;;;;;;;7.30;2.50;;;13.40;99.90;;;;;;5017609;28;20208;-71
2024/01/25 07:11:28;;;;;;;5.53;2.30;;;13.40;99.90;;;;;;4981879;28;20192;-71
2024/01/25 07:14:13;;;;;;;8.27;2.67;;;13.40;99.90;;;;;;4983704;28;20292;-71
2024/01/25 07:16:44;;;;;;;6.40;2.80;;;13.40;99.90;;;;;;4981805;28;20283;-71
2024/01/25 07:22:00;;;;;;;5.97;2.70;;;13.40;99.90;;;;;;5034821;28;20184;-71
2024/01/25 07:24:34;;;;;;;6.77;2.23;;;13.40;99.90;;;;;;5042802;28;20251;-71
2024/01/25 07:27:16;;;;;;;7.33;2.90;;;13.40;99.90;;;;;;5050475;28;20270;-72
2024/01/25 07:32:51;;;;;;;9.00;3.03;;;13.40;99.90;;;;;;5024702;28;20369;-71
2024/01/25 07:35:31;;;;;;;9.37;3.00;;;13.50;99.90;;;;;;5044688;28;20726;-71
2024/01/25 07:37:57;;;;;;;6.93;3.00;;;13.50;99.90;;;;;;5046824;28;20176;-71
2024/01/25 07:40:26;;;;;;;8.60;2.83;;;13.50;99.90;;;;;;5064991;28;20237;-71
2024/01/25 07:43:00;;;;;;;6.47;2.83;;;13.50;99.90;;;;;;5047339;28;20250;-71
2024/01/25 07:45:32;;;;;;;5.63;2.57;;;13.50;99.90;;;;;;5041574;28;20218;-71
2024/01/25 07:48:07;;;;;;;8.80;2.97;;;13.50;99.90;;;;;;5063793;28;20230;-71
2024/01/25 07:50:54;;;;;;;7.90;3.00;;;13.50;99.90;;;;;;5044081;28;20184;-71
2024/01/25 07:53:32;;;;;;;11.07;2.70;;;13.50;99.90;;;;;;5048638;28;20176;-71
2024/01/25 07:56:48;;;;;;;6.93;2.47;;;13.50;99.90;;;;;;5029823;28;20177;-71
2024/01/25 07:59:36;;;;;;;7.57;2.73;;;13.50;99.80;;;;;;5032071;28;20275;-71
2024/01/25 08:05:22;;;;;;;9.03;2.90;;;13.60;99.60;;;;;;5045830;28;20217;-71
2024/01/25 08:08:20;;;;;;;7.00;2.90;;;13.60;99.50;;;;;;5037891;28;20177;-71
2024/01/25 08:11:10;;;;;;;11.90;3.47;;;13.60;99.50;;;;;;5053220;28;20201;-71
2024/01/25 08:14:13;;;;;;;8.53;2.67;;;13.60;99.40;;;;;;5039174;28;20434;-71
2024/01/25 08:16:48;;;;;;;7.43;2.70;;;13.70;99.30;;;;;;5038439;28;20253;-71
2024/01/25 08:19:23;;;;;;;7.03;2.80;;;13.70;99.20;;;;;;5037815;28;20684;-71
2024/01/25 08:21:52;;;;;;;9.27;2.50;;;13.70;99.10;;;;;;5049634;28;20213;-71
2024/01/25 08:24:18;;;;;;;9.23;3.00;;;13.70;99.00;;;;;;5020028;28;20266;-71
2024/01/25 08:27:07;;;;;;;6.57;2.63;;;13.70;98.90;;;;;;5030049;28;20578;-71
2024/01/25 08:29:54;;;;;;;10.10;2.90;;;13.70;98.90;;;;;;5030510;28;20190;-71
2024/01/25 08:32:23;;;;;;;9.17;3.00;;;13.80;98.80;;;;;;5029833;28;20180;-71
2024/01/25 08:34:52;;;;;;;6.27;2.90;;;13.80;98.70;;;;;;5049102;28;20201;-72
2024/01/25 08:37:26;;;;;;;8.80;2.80;;;13.80;98.60;;;;;;5054772;28;20180;-71
2024/01/25 08:40:10;;;;;;;9.07;3.13;;;13.80;98.60;;;;;;5034757;28;20180;-71
2024/01/25 08:42:39;;;;;;;6.63;3.50;;;13.80;98.50;;;;;;5048007;28;20163;-71
2024/01/25 08:45:08;;;;;;;6.97;2.97;;;13.90;98.40;;;;;;5027772;28;20227;-71
2024/01/25 08:47:57;;;;;;;6.03;2.67;;;13.90;98.20;;;;;;5030071;28;20212;-71
2024/01/25 08:50:35;;;;;;;6.53;4.80;;;13.90;98.10;;;;;;5046250;28;20169;-71
2024/01/25 08:53:05;;;;;;;7.73;2.73;;;14.00;97.90;;;;;;5028477;28;20389;-71
2024/01/25 08:55:36;;;;;;;6.70;2.83;;;14.10;97.80;;;;;;5033556;28;20195;-71
2024/01/25 08:58:14;;;;;;;8.53;3.17;;;14.10;97.60;;;;;;5051916;28;20731;-71
2024/01/25 09:00:52;;;;;;;7.23;3.00;;;14.10;97.50;;;;;;5032712;28;20248;-71
2024/01/25 09:03:24;;;;;;;7.07;3.20;;;14.20;97.40;;;;;;5032712;28;20232;-71
2024/01/25 09:06:05;;;;;;;6.37;2.80;;;14.20;97.20;;;;;;5027551;28;20179;-71
2024/01/25 09:08:49;;;;;;;7.27;2.73;;;14.30;96.90;;;;;;5033841;28;20521;-71
2024/01/25 09:11:24;;;;;;;6.03;2.80;;;14.40;96.60;;;;;;5036315;28;20174;-71
2024/01/25 09:17:36;;;;;;;5.53;2.80;;;14.80;95.60;;;;;;5044292;28;20174;-71
2024/01/25 09:20:56;;;;;;;5.23;2.63;;;14.90;95.00;;;;;;5026147;28;20265;-71
2024/01/25 09:23:24;;;;;;;7.57;2.90;;;15.00;94.50;;;;;;4966601;28;20261;-71
2024/01/25 09:25:59;;;;;;;6.53;2.80;;;15.30;93.80;;;;;;5012924;28;20195;-71
2024/01/25 09:28:24;;;;;;;6.03;3.00;;;15.40;93.30;;;;;;5025331;28;20485;-71
2024/01/25 09:30:59;;;;;;;6.27;2.80;;;15.40;93.10;;;;;;5031326;28;20263;-71
2024/01/25 09:33:41;;;;;;;7.03;3.10;;;15.40;92.90;;;;;;5021464;28;20188;-71
2024/01/25 09:39:53;;;;;;;5.33;2.77;;;15.60;92.40;;;;;;5037171;28;20405;-71
2024/01/25 09:42:26;;;;;;;4.43;2.70;;;15.60;92.00;;;;;;5047638;28;20553;-71
2024/01/25 09:45:38;;;;;;;4.93;2.90;;;15.70;91.90;;;;;;5029536;28;20223;-72
2024/01/25 09:48:22;;;;;;;5.20;2.83;;;15.70;91.60;;;;;;5031489;28;20172;-71
2024/01/25 09:51:10;;;;;;;5.23;2.70;;;15.70;91.70;;;;;;5036217;28;20553;-71
2024/01/25 09:53:39;;;;;;;7.47;3.53;;;15.60;91.80;;;;;;5050217;28;20192;-71
2024/01/25 09:56:16;;;;;;;5.43;2.77;;;15.80;91.20;;;;;;5045156;28;20167;-71
2024/01/25 09:59:16;;;;;;;6.37;3.00;;;16.10;90.30;;;;;;5028795;28;20337;-72
2024/01/25 10:02:29;;;;;;;5.43;2.87;;;16.10;89.80;;;;;;5044676;28;20262;-72
2024/01/25 10:05:06;;;;;;;5.33;3.03;;;16.10;89.70;;;;;;4985281;28;20228;-71
2024/01/25 10:08:14;;;;;;;6.47;3.37;;;16.10;89.60;;;;;;4967741;28;20186;-71
2024/01/25 10:10:54;;;;;;;4.27;2.93;;;16.00;90.00;;;;;;5036140;28;20180;-71
2024/01/25 10:13:22;;;;;;;5.00;2.90;;;15.90;90.20;;;;;;5029509;28;20257;-72
2024/01/25 10:16:21;;;;;;;5.03;3.20;;;15.80;90.60;;;;;;5028558;28;20220;-72
2024/01/25 10:18:51;;;;;;;6.43;2.97;;;15.70;91.00;;;;;;5013219;28;20181;-71
2024/01/25 10:21:27;;;;;;;6.87;3.00;;;15.60;91.30;;;;;;5043113;28;20157;-71
2024/01/25 10:23:58;;;;;;;5.17;3.20;;;15.50;91.70;;;;;;5023543;28;20497;-71
2024/01/25 10:27:01;;;;;;;4.80;2.70;;;15.50;91.90;;;;;;5042149;28;20177;-71
2024/01/25 10:29:30;;;;;;;6.57;3.03;;;15.60;91.70;;;;;;5034547;28;20172;-71
2024/01/25 10:32:05;;;;;;;4.07;2.83;;;15.60;91.60;;;;;;5034700;28;20180;-71
2024/01/25 10:34:31;;;;;;;4.13;2.83;;;15.80;91.20;;;;;;5046205;28;20452;-71
2024/01/25 10:37:33;;;;;;;4.80;3.03;;;15.80;90.90;;;;;;5026974;28;20287;-71
2024/01/25 10:40:03;;;;;;;5.20;3.27;;;15.80;90.70;;;;;;5027286;28;20174;-71
2024/01/25 10:42:29;;;;;;;11.80;8.40;;;16.00;93.60;;;;;;5026073;28;20175;-71
2024/01/25 10:47:57;;;;;;;12.93;4.63;;;16.20;94.40;;;;;;5045289;28;20181;-71
2024/01/25 10:50:49;;;;;;;18.13;4.23;;;16.20;94.60;;;;;;5045423;28;20170;-70
2024/01/25 10:53:21;;;;;;;12.33;4.10;;;16.30;96.80;;;;;;5044530;28;20164;-71
2024/01/25 10:55:50;;;;;;;10.03;4.40;;;16.40;97.30;;;;;;5026111;28;20237;-71
2024/01/25 10:58:16;;;;;;;7.77;4.30;;;16.60;97.00;;;;;;5044121;28;20168;-71
2024/01/25 11:01:23;;;;;;;8.10;3.70;;;17.00;95.70;;;;;;5050024;28;20266;-70
2024/01/25 11:03:52;;;;;;;6.43;3.97;;;17.40;94.40;;;;;;5050856;28;20236;-72
2024/01/25 11:06:27;;;;;;;8.60;3.90;;;17.80;93.50;;;;;;5047087;28;20403;-71
2024/01/25 11:09:32;;;;;;;8.17;4.40;;;17.90;92.40;;;;;;5044517;28;20301;-71
2024/01/25 11:12:21;;;;;;;7.17;4.13;;;17.80;91.50;;;;;;5027868;28;20179;-70
2024/01/25 11:14:55;;;;;;;15.00;4.70;;;17.80;91.90;;;;;;5027051;28;20180;-70
2024/01/25 11:17:25;;;;;;;8.20;3.93;;;17.70;92.00;;;;;;5027917;28;20287;-72
2024/01/25 11:20:18;;;;;;;11.00;4.47;;;17.60;90.70;;;;;;5026243;28;20168;-70
2024/01/25 11:22:57;;;;;;;;;;;;;;;;;;;;;
2024/01/25 11:26:16;;;;;;;16.87;5.10;;;17.50;92.80;;;;;;5044448;28;20211;-81
2024/01/25 11:35:31;;;;;;;12.47;4.70;;;17.30;90.80;;;;;;5069946;22;20233;-6
2024/01/25 11:37:57;;;;;;;10.03;4.30;;;17.00;91.40;;;;;;5073207;28;20203;-6
2024/01/25 11:40:31;;;;;;;9.60;4.47;;;16.90;91.90;;;;;;5074828;28;20168;-6
2024/01/25 11:43:24;;;;;;;10.97;4.50;;;16.80;92.20;;;;;;5076488;28;20160;-6
2024/01/25 11:45:56;;;;;;;9.70;4.10;;;16.80;92.40;;;;;;5062888;28;20458;-6
2024/01/25 11:49:00;;;;;;;9.37;3.83;;;16.80;92.70;;;;;;5065086;28;20392;-6
2024/01/25 11:51:26;;;;;;;11.70;4.10;;;16.90;92.60;;;;;;4962429;28;20191;-6
2024/01/25 11:53:55;;;;;;;16.60;5.37;;;16.90;92.70;;;;;;4948437;28;20590;-4
2024/01/25 11:56:36;;;;;;;14.27;4.37;;;17.10;94.60;;;;;;4957541;28;20487;-5
2024/01/25 11:59:05;;;;;;;12.20;4.60;;;17.30;92.50;;;;;;4961943;28;20289;-7
2024/01/25 12:01:37;;;;;;;18.00;5.60;;;17.30;90.80;;;;;;4945972;29;20184;-6
2024/01/25 12:04:02;;;;;;;25.67;5.73;;;17.40;88.40;;;;;;4952461;28;20270;-5
2024/01/25 12:06:29;;;;;;;19.40;5.37;;;17.40;85.40;;;;;;4963666;28;20206;-4
2024/01/25 12:08:55;;;;;;;20.83;5.50;;;17.50;82.60;;;;;;5067170;28;20374;-6
2024/01/25 12:11:22;;;;;;;19.67;5.43;;;17.40;82.20;;;;;;5047932;28;20718;-6
2024/01/25 12:13:48;;;;;;;20.43;5.27;;;17.30;84.10;;;;;;5048288;28;20476;-5
2024/01/25 12:16:17;;;;;;;17.80;5.43;;;17.10;86.10;;;;;;5066595;28;20561;-5
2024/01/25 12:18:44;;;;;;;17.47;5.60;;;16.90;87.80;;;;;;5066205;28;20355;-5
2024/01/25 12:21:20;;;;;;;15.47;4.80;;;16.80;89.00;;;;;;5065891;28;20174;-5
2024/01/25 12:23:46;;;;;;;13.40;4.83;;;16.60;90.00;;;;;;5068356;28;20206;-4
2024/01/25 12:26:23;;;;;;;14.17;5.17;;;16.60;90.40;;;;;;5048743;28;20164;-4
2024/01/25 12:29:25;;;;;;;18.93;5.10;;;16.50;90.80;;;;;;5047480;28;20412;-6
2024/01/25 12:31:51;;;;;;;16.73;5.37;;;16.40;91.10;;;;;;5065151;28;20163;-5
2024/01/25 12:34:17;;;;;;;14.47;4.83;;;16.40;91.30;;;;;;5047471;28;20347;-4
2024/01/25 12:37:10;;;;;;;14.77;4.80;;;16.40;91.50;;;;;;5046996;28;20302;-5
2024/01/25 12:39:39;;;;;;;13.03;4.83;;;16.30;91.60;;;;;;5049374;28;20180;-5
2024/01/25 12:42:05;;;;;;;20.00;4.83;;;16.30;91.70;;;;;;5065657;28;20233;-5
2024/01/25 12:44:31;;;;;;;11.33;4.30;;;16.30;91.80;;;;;;5064628;28;20450;-5
2024/01/25 12:47:01;;;;;;;14.40;4.93;;;16.20;91.80;;;;;;5057107;23;20218;-5
2024/01/25 12:49:29;;;;;;;13.60;4.87;;;16.20;91.90;;;;;;5046695;28;20526;-4
2024/01/25 12:52:15;;;;;;;12.67;4.80;;;16.20;92.00;;;;;;5065479;28;20602;-6
2024/01/25 12:54:46;;;;;;;14.73;4.43;;;16.20;92.00;;;;;;5066077;28;20223;-5
2024/01/25 12:57:12;;;;;;;16.83;4.73;;;16.20;91.90;;;;;;5066867;28;20507;-5
2024/01/25 12:59:40;;;;;;;12.20;4.30;;;16.10;91.90;;;;;;5065668;28;20174;-5
2024/01/25 13:02:16;;;;;;;12.83;4.57;;;16.10;91.90;;;;;;5067397;28;20178;-4
2024/01/25 13:05:17;;;;;;;11.83;4.23;;;16.10;91.90;;;;;;5069061;28;20198;-5
2024/01/25 13:07:48;;;;;;;12.07;4.60;;;16.10;91.90;;;;;;4986338;28;20181;-5
2024/01/25 13:13:15;;;;;;;11.30;4.23;;;16.00;92.00;;;;;;4976927;28;20277;-5
2024/01/25 13:15:41;;;;;;;12.77;4.90;;;16.00;92.10;;;;;;5001654;28;20309;-7
2024/01/25 13:18:09;;;;;;;11.23;4.17;;;16.00;92.10;;;;;;5066894;28;20167;-6
2024/01/25 13:20:35;;;;;;;14.60;4.13;;;16.00;92.20;;;;;;5066471;28;20541;-5
2024/01/25 13:23:01;;;;;;;11.93;4.43;;;16.00;92.30;;;;;;5046325;28;20171;-6
2024/01/25 13:25:29;;;;;;;14.40;4.57;;;16.00;92.50;;;;;;5046691;28;20199;-6
2024/01/25 13:28:01;;;;;;;13.47;4.67;;;16.00;92.30;;;;;;5066272;28;20237;-4
2024/01/25 13:30:27;;;;;;;10.63;4.10;;;16.00;92.40;;;;;;5064590;28;20428;-6
2024/01/25 13:32:55;;;;;;;8.53;3.73;;;16.00;92.40;;;;;;5048865;28;20548;-5
2024/01/25 13:35:23;;;;;;;10.13;3.63;;;16.00;92.50;;;;;;5047951;28;20175;-7
2024/01/25 13:38:07;;;;;;;11.93;3.83;;;15.90;92.60;;;;;;5066031;28;20435;-6
2024/01/25 13:40:39;;;;;;;11.63;3.83;;;15.90;92.60;;;;;;5056240;28;20191;-5
2024/01/25 13:43:08;;;;;;;8.37;3.80;;;15.90;92.70;;;;;;5067923;28;20171;-5
2024/01/25 13:45:39;;;;;;;13.00;4.57;;;15.90;92.70;;;;;;5049921;28;20203;-7
2024/01/25 13:48:18;;;;;;;10.80;4.23;;;15.90;92.80;;;;;;5066023;28;20705;-4
2024/01/25 13:50:50;;;;;;;8.70;4.03;;;15.80;92.90;;;;;;5065880;28;20411;-5
2024/01/25 13:53:27;;;;;;;10.77;4.03;;;15.80;93.00;;;;;;5064934;28;20192;-6
2024/01/25 13:55:53;;;;;;;11.87;4.20;;;15.80;93.00;;;;;;5065907;28;20355;-7
2024/01/25 13:58:25;;;;;;;10.07;3.90;;;15.80;93.10;;;;;;5064123;28;20179;-4
2024/01/25 14:00:50;;;;;;;8.60;3.60;;;15.80;93.10;;;;;;5046566;28;20164;-6
2024/01/25 14:03:19;;;;;;;9.27;3.80;;;15.80;93.20;;;;;;5061878;28;20198;-7
2024/01/25 14:05:48;;;;;;;10.83;3.73;;;15.80;93.20;;;;;;5044558;28;20207;-6
2024/01/25 14:08:16;;;;;;;9.87;3.50;;;15.70;93.20;;;;;;5046143;28;20365;-6
2024/01/25 14:10:51;;;;;;;7.50;3.30;;;15.70;93.30;;;;;;5047999;28;20540;-5
2024/01/25 14:13:26;;;;;;;7.80;3.63;;;15.70;93.30;;;;;;5046581;28;20440;-3
2024/01/25 14:15:55;;;;;;;9.63;3.70;;;15.70;93.30;;;;;;5046587;28;20344;-5
2024/01/25 14:18:48;;;;;;;7.70;3.27;;;15.70;93.40;;;;;;5063797;28;20175;-6
2024/01/25 14:24:04;;;;;;;8.60;4.00;;;15.70;93.60;;;;;;5065215;28;20410;-7
2024/01/25 14:26:30;;;;;;;8.87;3.57;;;15.70;93.70;;;;;;5046929;28;20442;-6
2024/01/25 14:28:58;;;;;;;7.67;3.50;;;15.70;93.70;;;;;;5063977;28;20167;-6
2024/01/25 14:31:24;;;;;;;8.17;3.40;;;15.70;93.70;;;;;;5053012;28;20268;-6
2024/01/25 14:33:49;;;;;;;9.60;3.60;;;15.60;93.70;;;;;;5071276;28;20224;-5
2024/01/25 14:36:18;;;;;;;6.53;3.60;;;15.60;93.90;;;;;;5070752;28;20172;-5
2024/01/25 14:38:50;;;;;;;11.17;3.40;;;15.60;94.00;;;;;;5055884;28;20185;-6
2024/01/25 14:41:29;;;;;;;10.20;3.43;;;15.60;94.10;;;;;;5054628;28;20178;-6
2024/01/25 14:43:59;;;;;;;7.40;3.27;;;15.60;94.20;;;;;;5066571;28;20235;-5
2024/01/25 14:46:24;;;;;;;8.77;3.27;;;15.60;94.20;;;;;;5061997;28;20208;-6
2024/01/25 14:49:11;;;;;;;7.23;3.33;;;15.60;94.20;;;;;;5046643;28;20210;-5
2024/01/25 14:51:46;;;;;;;7.57;3.47;;;15.60;94.20;;;;;;5053930;28;20176;-6
2024/01/25 14:54:11;;;;;;;10.50;3.57;;;15.60;94.20;;;;;;5038045;28;20202;-6
2024/01/25 14:56:58;;;;;;;8.00;3.20;;;15.60;94.20;;;;;;5046814;28;20176;-6
2024/01/25 14:59:33;;;;;;;8.77;3.77;;;15.60;94.20;;;;;;5043902;28;20219;-6
2024/01/25 15:02:05;;;;;;;8.97;3.17;;;15.60;94.20;;;;;;5045021;28;20567;-4
2024/01/25 15:04:31;;;;;;;8.87;3.40;;;15.50;94.20;;;;;;5037462;28;20750;-7
2024/01/25 15:06:56;;;;;;;5.77;2.83;;;15.50;94.20;;;;;;5036762;28;20172;-7
2024/01/25 15:09:22;;;;;;;8.00;3.40;;;15.50;94.40;;;;;;5053011;28;20168;-6
2024/01/25 15:11:48;;;;;;;7.20;3.40;;;15.60;94.40;;;;;;5042545;28;20375;-4
2024/01/25 15:14:17;;;;;;;6.93;3.40;;;15.60;94.50;;;;;;5041729;28;20203;-5
2024/01/25 15:16:42;;;;;;;7.87;3.07;;;15.60;94.60;;;;;;5024659;28;20168;-6
2024/01/25 15:19:14;;;;;;;7.20;3.50;;;15.60;94.40;;;;;;5043775;28;20187;-7
2024/01/25 15:21:43;;;;;;;7.37;3.43;;;15.60;94.40;;;;;;5044199;28;20553;-6
2024/01/25 15:24:08;;;;;;;7.27;3.47;;;15.50;94.40;;;;;;5023616;28;20456;-6
2024/01/25 15:27:01;;;;;;;9.80;3.37;;;15.50;94.30;;;;;;5025916;28;20404;-5
2024/01/25 15:29:46;;;;;;;8.43;3.10;;;15.50;94.30;;;;;;5042449;28;20274;-5
2024/01/25 15:32:11;;;;;;;9.53;3.70;;;15.50;94.50;;;;;;5043113;28;20446;-5
2024/01/25 15:34:47;;;;;;;7.03;3.17;;;15.50;94.50;;;;;;5043737;28;20202;-4
2024/01/25 15:37:18;;;;;;;8.17;3.43;;;15.50;94.40;;;;;;5043662;28;20596;-6
2024/01/25 15:39:47;;;;;;;7.43;3.43;;;15.50;94.30;;;;;;5023109;28;20172;-5
2024/01/25 15:42:30;;;;;;;8.23;3.40;;;15.50;94.30;;;;;;5043391;28;20180;-6
2024/01/25 15:45:06;;;;;;;10.60;3.77;;;15.50;94.30;;;;;;5026086;28;20214;-6
2024/01/25 15:47:32;;;;;;;8.17;3.27;;;15.50;94.30;;;;;;5044689;28;20325;-6
2024/01/25 15:50:14;;;;;;;8.70;3.53;;;15.50;94.30;;;;;;5027156;28;20208;-4
2024/01/25 15:53:04;;;;;;;7.13;3.47;;;15.50;94.30;;;;;;5045617;28;20474;-5
2024/01/25 15:55:36;;;;;;;11.40;3.60;;;15.50;94.30;;;;;;5043762;28;20168;-5